Time;durP1;ratioP1;P1;durP2;ratioP2;P2;SDS_P1;SDS_P2;PMS_P1;PMS_P2;Temp;Humidity;BMP_temperature;BMP_pressure;BME280_temperature;BME280_humidity;BME280_pressure;Samples;Min_cycle;Max_cycle;Signal;HPM_P1;HPM_P2
2022/05/13 00:01:05;;;;;;;6.28;2.95;;;12.40;99.90;;;;;;5031713;28;20041;-74
2022/05/13 00:03:31;;;;;;;12.10;4.28;;;12.40;99.90;;;;;;5048844;28;20037;-74
2022/05/13 00:05:56;;;;;;;5.82;3.08;;;12.40;99.90;;;;;;5048205;28;20045;-74
2022/05/13 00:08:22;;;;;;;10.15;4.03;;;12.40;99.90;;;;;;5049595;28;20551;-74
2022/05/13 00:10:48;;;;;;;10.65;3.10;;;12.40;99.90;;;;;;5047620;28;20044;-73
2022/05/13 00:13:14;;;;;;;8.93;2.88;;;12.30;99.90;;;;;;5047817;28;20424;-74
2022/05/13 00:15:42;;;;;;;4.78;2.60;;;12.40;99.90;;;;;;5050029;28;20045;-74
2022/05/13 00:18:08;;;;;;;8.07;3.13;;;12.40;99.90;;;;;;5048116;28;20072;-75
2022/05/13 00:20:34;;;;;;;10.68;3.30;;;12.40;99.90;;;;;;5014416;28;20052;-74
2022/05/13 00:23:00;;;;;;;7.22;3.20;;;12.30;99.90;;;;;;5047707;28;20036;-74
2022/05/13 00:25:29;;;;;;;6.95;3.00;;;12.30;99.90;;;;;;5047487;28;20076;-73
2022/05/13 00:27:56;;;;;;;7.10;3.03;;;12.20;99.90;;;;;;5048724;28;20037;-73
2022/05/13 00:30:23;;;;;;;10.60;3.10;;;12.30;99.90;;;;;;5047702;28;20037;-73
2022/05/13 00:32:49;;;;;;;11.65;3.08;;;12.30;99.90;;;;;;5047389;28;20520;-74
2022/05/13 00:35:16;;;;;;;6.80;2.83;;;12.30;99.90;;;;;;5031176;28;20052;-74
2022/05/13 00:37:41;;;;;;;10.80;3.22;;;12.30;99.90;;;;;;5045654;28;20131;-74
2022/05/13 00:40:09;;;;;;;9.80;2.90;;;12.40;99.90;;;;;;5045145;28;20120;-74
2022/05/13 00:42:35;;;;;;;9.30;3.20;;;12.40;99.90;;;;;;5046832;28;20041;-74
2022/05/13 00:45:01;;;;;;;6.10;2.83;;;12.40;99.90;;;;;;5046824;28;20039;-74
2022/05/13 00:47:27;;;;;;;5.18;2.80;;;12.30;99.90;;;;;;5047276;28;20087;-74
2022/05/13 00:49:55;;;;;;;7.40;3.00;;;12.40;99.90;;;;;;5030413;28;20073;-73
2022/05/13 00:52:21;;;;;;;6.93;3.13;;;12.40;99.90;;;;;;5047658;28;20291;-73
2022/05/13 00:54:47;;;;;;;;;;;12.40;99.90;;;;;;5045178;28;20048;-74
2022/05/13 00:57:14;;;;;;;9.30;2.78;;;12.40;99.90;;;;;;5047281;28;20078;-74
2022/05/13 00:59:43;;;;;;;9.90;2.97;;;12.50;99.90;;;;;;5030181;28;20056;-74
2022/05/13 01:02:09;;;;;;;5.22;2.70;;;12.50;99.90;;;;;;5047388;28;20347;-74
2022/05/13 01:04:36;;;;;;;7.13;2.70;;;12.40;99.90;;;;;;5046793;28;20047;-73
2022/05/13 01:07:06;;;;;;;8.25;3.05;;;12.50;99.90;;;;;;5047634;28;20036;-74
2022/05/13 01:09:50;;;;;;;10.18;2.63;;;12.50;99.90;;;;;;5047286;28;20103;-74
2022/05/13 01:12:20;;;;;;;9.98;3.00;;;12.50;99.90;;;;;;5047246;28;20477;-73
2022/05/13 01:15:05;;;;;;;6.82;2.70;;;12.40;99.90;;;;;;5047059;28;20075;-74
2022/05/13 01:20:25;;;;;;;10.43;3.22;;;12.40;99.90;;;;;;5046980;28;20041;-73
2022/05/13 01:22:58;;;;;;;5.93;2.55;;;12.40;99.90;;;;;;5046793;28;20420;-73
2022/05/13 01:25:26;;;;;;;13.68;3.67;;;12.40;99.90;;;;;;5046919;28;20049;-73
2022/05/13 01:27:53;;;;;;;7.53;3.03;;;12.50;99.90;;;;;;5046606;28;20083;-74
2022/05/13 01:30:26;;;;;;;8.55;3.05;;;12.50;99.90;;;;;;5047120;28;20120;-74
2022/05/13 01:32:53;;;;;;;7.35;3.28;;;12.40;99.90;;;;;;5046864;28;20047;-73
2022/05/13 01:35:19;;;;;;;12.02;3.78;;;12.50;99.90;;;;;;5047452;28;20130;-74
2022/05/13 01:37:45;;;;;;;6.15;3.08;;;12.50;99.90;;;;;;5046608;28;20048;-73
2022/05/13 01:40:12;;;;;;;8.77;3.45;;;12.50;99.90;;;;;;5046894;28;20061;-74
2022/05/13 01:42:38;;;;;;;10.35;2.95;;;12.50;99.90;;;;;;5046541;28;20045;-73
2022/05/13 01:45:07;;;;;;;8.52;3.67;;;12.50;99.90;;;;;;5050537;28;20373;-73
2022/05/13 01:47:33;;;;;;;8.13;3.67;;;12.40;99.90;;;;;;5050118;28;20113;-73
2022/05/13 01:49:59;;;;;;;10.05;3.45;;;12.50;99.90;;;;;;5050405;28;20116;-72
2022/05/13 01:52:24;;;;;;;11.90;3.50;;;12.50;99.90;;;;;;5050597;28;20234;-73
2022/05/13 01:54:50;;;;;;;8.10;3.28;;;12.40;99.90;;;;;;5050231;28;20299;-73
2022/05/13 01:57:16;;;;;;;10.07;4.22;;;12.40;99.90;;;;;;5034071;28;20516;-74
2022/05/13 01:59:42;;;;;;;10.13;4.03;;;12.50;99.90;;;;;;5049894;28;20424;-73
2022/05/13 02:02:07;;;;;;;11.05;3.85;;;12.50;99.90;;;;;;5050193;28;20048;-73
2022/05/13 02:04:33;;;;;;;7.95;3.33;;;12.50;99.90;;;;;;5066836;28;20119;-73
2022/05/13 02:06:59;;;;;;;10.85;4.40;;;12.50;99.90;;;;;;5049672;28;20045;-73
2022/05/13 02:09:25;;;;;;;8.77;3.90;;;12.40;99.90;;;;;;5058717;28;20052;-74
2022/05/13 02:11:51;;;;;;;14.02;4.32;;;12.50;99.90;;;;;;5049803;28;20312;-73
2022/05/13 02:14:18;;;;;;;13.23;4.15;;;12.50;99.90;;;;;;5049902;28;20603;-73
2022/05/13 02:16:44;;;;;;;13.75;4.15;;;12.50;99.90;;;;;;5049773;28;20049;-74
2022/05/13 02:19:10;;;;;;;9.00;3.90;;;12.60;99.90;;;;;;5050134;28;20076;-73
2022/05/13 02:21:36;;;;;;;12.15;4.20;;;12.50;99.90;;;;;;5049844;28;20076;-73
2022/05/13 02:24:02;;;;;;;;;;;12.50;99.90;;;;;;5033406;28;20080;-74
2022/05/13 02:26:28;;;;;;;11.55;4.35;;;12.50;99.90;;;;;;5033225;28;19916;-74
2022/05/13 02:28:54;;;;;;;11.68;4.53;;;12.40;99.90;;;;;;5049630;28;20037;-74
2022/05/13 02:31:20;;;;;;;11.23;4.13;;;12.50;99.90;;;;;;5049814;28;20485;-73
2022/05/13 02:33:46;;;;;;;12.48;4.95;;;12.40;99.90;;;;;;5049619;28;20455;-74
2022/05/13 02:36:13;;;;;;;14.73;5.18;;;12.40;99.90;;;;;;5049973;28;20489;-73
2022/05/13 02:38:39;;;;;;;16.17;5.00;;;12.50;99.90;;;;;;5049807;28;20033;-73
2022/05/13 02:41:11;;;;;;;12.25;4.45;;;12.60;99.90;;;;;;5049194;28;20128;-73
2022/05/13 02:43:38;;;;;;;8.88;4.50;;;12.50;99.90;;;;;;5049513;28;20037;-74
2022/05/13 02:46:04;;;;;;;10.40;4.28;;;12.40;99.90;;;;;;5049649;28;20045;-73
2022/05/13 02:48:30;;;;;;;8.82;4.45;;;12.40;99.90;;;;;;5049408;28;20091;-74
2022/05/13 02:50:55;;;;;;;15.65;4.60;;;12.40;99.90;;;;;;5050288;28;20098;-74
2022/05/13 02:53:22;;;;;;;11.50;4.20;;;12.40;99.90;;;;;;5033118;28;20444;-74
2022/05/13 02:55:48;;;;;;;15.18;4.80;;;12.30;99.90;;;;;;5045488;28;20292;-75
2022/05/13 02:58:14;;;;;;;14.10;4.10;;;12.40;99.90;;;;;;5049493;28;20041;-74
2022/05/13 03:00:40;;;;;;;10.25;3.92;;;12.40;99.90;;;;;;5049234;28;20048;-73
2022/05/13 03:03:06;;;;;;;10.45;4.10;;;12.40;99.90;;;;;;5048690;28;20100;-73
2022/05/13 03:05:33;;;;;;;12.40;4.40;;;12.50;99.90;;;;;;5048982;28;20094;-73
2022/05/13 03:08:01;;;;;;;14.77;3.92;;;12.40;99.90;;;;;;5032143;28;20048;-74
2022/05/13 03:10:31;;;;;;;14.93;4.63;;;12.40;99.90;;;;;;5049194;28;20540;-74
2022/05/13 03:12:58;;;;;;;13.18;4.32;;;12.40;99.90;;;;;;5048795;28;20052;-73
2022/05/13 03:15:25;;;;;;;12.35;4.95;;;12.40;99.90;;;;;;5046835;28;20094;-73
2022/05/13 03:17:51;;;;;;;11.40;3.80;;;12.40;99.90;;;;;;5049188;28;20068;-74
2022/05/13 03:20:19;;;;;;;17.33;4.70;;;12.40;99.90;;;;;;5032468;28;20044;-73
2022/05/13 03:22:45;;;;;;;10.63;3.90;;;12.40;99.90;;;;;;5048577;28;20040;-73
2022/05/13 03:25:11;;;;;;;17.90;4.88;;;12.40;99.90;;;;;;5048580;28;20043;-73
2022/05/13 03:27:37;;;;;;;16.38;5.22;;;12.30;99.90;;;;;;5054415;28;20568;-74
2022/05/13 03:30:05;;;;;;;20.77;4.22;;;12.30;99.90;;;;;;5048269;28;20125;-74
2022/05/13 03:32:30;;;;;;;13.95;4.03;;;12.40;99.90;;;;;;5049015;28;20048;-74
2022/05/13 03:34:56;;;;;;;15.20;4.20;;;12.40;99.90;;;;;;5048446;28;20033;-74
2022/05/13 03:37:22;;;;;;;13.83;3.70;;;12.40;99.90;;;;;;5048607;28;20639;-74
2022/05/13 03:39:47;;;;;;;10.90;3.73;;;12.40;99.90;;;;;;5048203;28;20287;-74
2022/05/13 03:42:13;;;;;;;12.57;3.77;;;12.50;99.90;;;;;;5048143;28;20639;-74
2022/05/13 03:44:39;;;;;;;13.70;4.22;;;12.40;99.90;;;;;;5048556;28;20550;-73
2022/05/13 03:47:05;;;;;;;13.38;4.13;;;12.40;99.90;;;;;;5031280;28;20033;-73
2022/05/13 03:49:31;;;;;;;13.85;4.35;;;12.30;99.90;;;;;;5031744;28;20041;-73
2022/05/13 03:51:58;;;;;;;11.80;4.07;;;12.30;99.90;;;;;;5048189;28;20484;-74
2022/05/13 03:54:23;;;;;;;12.23;4.13;;;12.30;99.90;;;;;;5049052;28;20049;-73
2022/05/13 03:56:49;;;;;;;16.67;4.60;;;12.30;99.90;;;;;;5048159;28;20041;-74
2022/05/13 03:59:15;;;;;;;12.32;4.18;;;12.20;99.90;;;;;;5045633;28;20037;-73
2022/05/13 04:01:41;;;;;;;10.90;4.63;;;12.20;99.90;;;;;;5048366;28;20040;-74
2022/05/13 04:04:07;;;;;;;12.65;3.97;;;12.30;99.90;;;;;;5018822;28;20588;-74
2022/05/13 04:09:17;;;;;;;13.07;4.75;;;12.30;99.90;;;;;;5047669;28;20064;-74
2022/05/13 04:16:04;;;;;;;18.10;4.70;;;12.30;99.90;;;;;;5049318;28;20603;-74
2022/05/13 04:17:13;;;;;;;17.75;4.60;;;12.30;99.90;;;;;;5047094;28;20110;-74
2022/05/13 04:19:39;;;;;;;13.68;4.38;;;12.30;99.90;;;;;;5031454;28;20504;-76
2022/05/13 04:22:04;;;;;;;15.20;4.50;;;12.30;99.90;;;;;;5043898;28;20091;-74
2022/05/13 04:24:30;;;;;;;14.17;5.40;;;12.30;99.90;;;;;;5044553;28;20387;-74
2022/05/13 04:26:56;;;;;;;19.08;4.88;;;12.40;99.90;;;;;;5030806;28;20037;-75
2022/05/13 04:29:21;;;;;;;17.00;5.05;;;12.30;99.90;;;;;;5047261;28;20040;-75
2022/05/13 04:31:47;;;;;;;20.13;5.40;;;12.30;99.90;;;;;;5047796;28;20094;-75
2022/05/13 04:34:13;;;;;;;16.33;5.10;;;12.30;99.90;;;;;;5050220;28;20295;-75
2022/05/13 04:36:39;;;;;;;16.27;4.82;;;12.40;99.90;;;;;;5053310;28;20041;-75
2022/05/13 04:39:05;;;;;;;16.17;4.88;;;12.50;99.90;;;;;;5046857;28;20116;-76
2022/05/13 04:44:15;;;;;;;15.55;4.13;;;12.50;99.90;;;;;;5047357;28;20132;-74
2022/05/13 04:46:41;;;;;;;18.33;4.60;;;12.50;99.90;;;;;;5047519;28;20041;-75
2022/05/13 04:49:07;;;;;;;16.13;4.22;;;12.50;99.90;;;;;;5046972;28;20040;-74
2022/05/13 04:51:34;;;;;;;14.60;4.43;;;12.50;99.90;;;;;;5039333;28;20075;-75
2022/05/13 04:53:59;;;;;;;;;;;12.50;99.90;;;;;;5031414;28;20115;-75
2022/05/13 04:56:27;;;;;;;22.77;4.10;;;12.50;99.90;;;;;;5031382;28;20011;-74
2022/05/13 04:58:53;;;;;;;12.77;3.83;;;12.60;99.90;;;;;;5047492;28;20056;-74
2022/05/13 05:01:22;;;;;;;15.60;4.15;;;12.70;99.90;;;;;;5047269;28;20109;-75
2022/05/13 05:03:48;;;;;;;14.98;4.20;;;12.60;99.90;;;;;;5030783;28;20029;-75
2022/05/13 05:06:16;;;;;;;19.90;4.82;;;12.70;99.90;;;;;;5030790;28;20101;-75
2022/05/13 05:08:42;;;;;;;17.23;4.30;;;12.70;99.90;;;;;;5047197;28;20033;-75
2022/05/13 05:11:09;;;;;;;15.98;4.25;;;12.70;99.90;;;;;;5046979;28;20041;-75
2022/05/13 05:13:38;;;;;;;12.07;3.97;;;12.70;99.90;;;;;;5047672;28;20473;-75
2022/05/13 05:16:07;;;;;;;15.40;3.70;;;12.70;99.90;;;;;;5047391;28;20068;-75
2022/05/13 05:18:37;;;;;;;14.45;3.70;;;12.80;99.90;;;;;;5035837;28;20041;-75
2022/05/13 05:21:04;;;;;;;13.82;4.07;;;12.80;99.90;;;;;;5035739;28;20033;-74
2022/05/13 05:23:33;;;;;;;16.25;3.40;;;12.80;99.90;;;;;;5052709;28;20559;-75
2022/05/13 05:25:59;;;;;;;13.27;3.60;;;12.90;99.90;;;;;;5053184;28;22091;-74
2022/05/13 05:28:26;;;;;;;16.38;3.10;;;13.00;99.90;;;;;;5052737;28;20041;-75
2022/05/13 05:30:52;;;;;;;12.75;3.13;;;13.00;99.90;;;;;;5051508;28;20513;-75
2022/05/13 05:33:18;;;;;;;19.40;3.80;;;13.00;99.90;;;;;;5051194;28;20091;-75
2022/05/13 05:35:44;;;;;;;11.80;3.67;;;13.00;99.90;;;;;;5051327;28;20064;-75
2022/05/13 05:38:10;;;;;;;14.85;3.83;;;13.10;99.90;;;;;;5034218;28;20047;-74
2022/05/13 05:40:39;;;;;;;10.13;2.92;;;13.10;99.90;;;;;;5051091;28;20393;-75
2022/05/13 05:43:11;;;;;;;14.48;3.83;;;13.50;99.90;;;;;;5034700;28;20382;-75
2022/05/13 05:45:40;;;;;;;9.60;2.92;;;13.20;99.90;;;;;;5051016;28;20043;-75
2022/05/13 05:48:07;;;;;;;11.15;2.90;;;13.40;99.90;;;;;;5051382;28;20114;-76
2022/05/13 05:50:34;;;;;;;10.82;2.15;;;13.40;99.90;;;;;;5051344;28;20043;-74
2022/05/13 05:53:01;;;;;;;8.50;2.67;;;13.50;99.90;;;;;;5051613;28;20110;-75
2022/05/13 05:58:14;;;;;;;9.43;2.72;;;13.40;99.90;;;;;;5038988;28;20481;-75
2022/05/13 06:00:45;;;;;;;8.77;2.40;;;13.50;99.90;;;;;;5051893;28;20508;-74
2022/05/13 06:03:11;;;;;;;8.85;2.60;;;13.50;99.90;;;;;;5054863;28;20087;-73
2022/05/13 06:05:37;;;;;;;7.93;2.35;;;13.50;99.90;;;;;;5050568;28;20509;-75
2022/05/13 06:08:04;;;;;;;10.18;2.53;;;13.50;99.90;;;;;;5050377;28;20037;-75
2022/05/13 06:10:32;;;;;;;9.48;2.60;;;13.50;99.90;;;;;;5033526;28;20041;-74
2022/05/13 06:12:58;;;;;;;7.78;2.33;;;13.50;99.90;;;;;;5050638;28;20128;-75
2022/05/13 06:15:24;;;;;;;8.93;2.10;;;13.50;99.90;;;;;;5049841;28;20569;-74
2022/05/13 06:17:52;;;;;;;7.95;2.42;;;13.50;99.90;;;;;;5050200;28;20051;-73
2022/05/13 06:20:21;;;;;;;8.93;2.22;;;13.50;99.90;;;;;;5049842;28;20041;-74
2022/05/13 06:22:47;;;;;;;9.25;1.90;;;13.50;99.90;;;;;;5050543;28;20097;-74
2022/05/13 06:25:15;;;;;;;8.15;1.88;;;13.60;99.90;;;;;;5049826;28;20084;-76
2022/05/13 06:27:41;;;;;;;8.82;2.17;;;13.50;99.90;;;;;;5050574;28;20099;-75
2022/05/13 06:30:10;;;;;;;7.53;2.17;;;13.60;99.90;;;;;;5033477;28;20068;-74
2022/05/13 06:32:36;;;;;;;6.97;2.10;;;13.60;99.90;;;;;;5050851;28;20044;-74
2022/05/13 06:35:03;;;;;;;9.43;2.33;;;13.70;99.90;;;;;;5051449;28;20433;-74
2022/05/13 06:37:29;;;;;;;5.65;1.90;;;13.70;99.90;;;;;;5049691;28;20037;-73
2022/05/13 06:39:54;;;;;;;10.07;2.30;;;13.70;99.90;;;;;;5049933;28;20044;-75
2022/05/13 06:42:20;;;;;;;4.80;1.85;;;13.70;99.90;;;;;;5032709;28;20283;-74
2022/05/13 06:44:46;;;;;;;6.68;2.08;;;13.80;99.90;;;;;;5050091;28;20369;-74
2022/05/13 06:47:11;;;;;;;4.93;1.73;;;13.90;99.90;;;;;;5050833;28;20103;-73
2022/05/13 06:49:37;;;;;;;9.77;1.88;;;14.00;99.90;;;;;;5050034;28;20036;-74
2022/05/13 06:52:03;;;;;;;6.90;2.05;;;14.10;99.90;;;;;;5049805;28;20036;-74
2022/05/13 06:54:30;;;;;;;7.10;2.30;;;14.10;99.90;;;;;;5049619;28;20041;-74
2022/05/13 06:56:56;;;;;;;7.35;1.58;;;14.20;99.90;;;;;;5016458;28;20037;-74
2022/05/13 06:59:22;;;;;;;8.02;1.58;;;14.30;99.90;;;;;;5015996;28;20416;-75
2022/05/13 07:01:48;;;;;;;;;;;14.40;99.90;;;;;;5049921;28;20044;-73
2022/05/13 07:04:14;;;;;;;6.30;1.77;;;14.50;99.90;;;;;;5050129;28;19922;-73
2022/05/13 07:06:40;;;;;;;8.27;1.70;;;14.60;99.90;;;;;;5049770;28;20040;-75
2022/05/13 07:09:06;;;;;;;9.00;2.00;;;14.80;99.90;;;;;;5049671;28;20029;-75
2022/05/13 07:11:32;;;;;;;;;;;14.80;99.90;;;;;;5032578;28;20041;-75
2022/05/13 07:13:58;;;;;;;5.97;1.80;;;14.80;99.90;;;;;;5078889;28;19924;-75
2022/05/13 07:16:23;;;;;;;7.68;2.10;;;14.70;99.90;;;;;;5056165;28;20506;-75
2022/05/13 07:18:50;;;;;;;4.97;1.60;;;14.70;99.90;;;;;;5036603;28;20041;-75
2022/05/13 07:21:16;;;;;;;5.07;1.60;;;14.80;99.90;;;;;;5035935;28;20037;-75
2022/05/13 07:23:42;;;;;;;6.65;1.75;;;14.80;99.90;;;;;;5036082;28;20037;-75
2022/05/13 07:26:09;;;;;;;6.65;1.92;;;14.90;99.90;;;;;;5052771;28;20040;-75
2022/05/13 07:28:36;;;;;;;6.65;1.63;;;15.10;99.90;;;;;;5035659;28;20488;-75
2022/05/13 07:31:01;;;;;;;5.53;1.88;;;15.40;99.90;;;;;;5037323;28;20570;-75
2022/05/13 07:33:30;;;;;;;9.23;1.60;;;16.00;99.90;;;;;;5051205;28;20123;-76
2022/05/13 07:35:56;;;;;;;5.53;1.95;;;16.50;99.90;;;;;;5070422;28;20807;-76
2022/05/13 07:38:22;;;;;;;10.45;1.75;;;17.00;99.90;;;;;;5035456;28;20119;-76
2022/05/13 07:43:32;;;;;;;6.13;1.40;;;17.70;99.90;;;;;;5041112;28;20501;-76
2022/05/13 07:45:58;;;;;;;6.93;1.38;;;17.60;99.90;;;;;;5049315;28;20093;-77
2022/05/13 07:48:23;;;;;;;4.40;1.10;;;17.60;99.90;;;;;;5033786;28;20044;-77
2022/05/13 07:50:50;;;;;;;4.22;1.38;;;17.90;99.90;;;;;;5049446;28;20487;-77
2022/05/13 07:53:15;;;;;;;;;;;17.70;99.90;;;;;;5032306;28;20167;-75
2022/05/13 07:55:41;;;;;;;4.95;1.40;;;17.40;99.90;;;;;;5034998;28;19983;-77
2022/05/13 07:58:06;;;;;;;5.82;1.52;;;17.10;99.90;;;;;;5035606;28;20044;-74
2022/05/13 08:00:33;;;;;;;5.10;1.42;;;16.90;99.90;;;;;;5052783;28;20450;-74
2022/05/13 08:03:04;;;;;;;4.43;1.15;;;17.00;99.90;;;;;;5052229;28;20040;-75
2022/05/13 08:05:42;;;;;;;3.50;1.30;;;16.80;99.90;;;;;;5051838;28;20037;-75
2022/05/13 08:08:21;;;;;;;5.78;1.30;;;16.90;99.90;;;;;;5052306;28;20101;-75
2022/05/13 08:10:52;;;;;;;5.97;1.70;;;16.70;99.90;;;;;;5053706;28;20442;-75
2022/05/13 08:13:19;;;;;;;5.88;1.35;;;16.40;99.90;;;;;;5052452;28;20052;-74
2022/05/13 08:15:46;;;;;;;6.38;1.23;;;16.10;99.90;;;;;;5048769;28;20053;-74
2022/05/13 08:18:12;;;;;;;4.85;1.35;;;16.00;99.90;;;;;;5016587;28;20033;-74
2022/05/13 08:20:38;;;;;;;4.70;1.30;;;15.70;99.90;;;;;;5048458;28;20123;-74
2022/05/13 08:23:04;;;;;;;8.60;1.58;;;15.60;99.90;;;;;;5032470;28;20123;-74
2022/05/13 08:25:30;;;;;;;4.72;1.48;;;15.50;99.90;;;;;;5048456;28;20037;-74
2022/05/13 08:27:56;;;;;;;6.93;1.75;;;15.50;99.90;;;;;;5035250;28;20028;-74
2022/05/13 08:30:22;;;;;;;6.07;1.55;;;15.50;99.90;;;;;;5048597;28;20103;-74
2022/05/13 08:32:48;;;;;;;7.20;1.50;;;15.50;99.90;;;;;;5049718;28;20040;-75
2022/05/13 08:35:15;;;;;;;7.60;1.95;;;15.70;99.90;;;;;;5048743;28;20048;-75
2022/05/13 08:37:50;;;;;;;7.07;1.63;;;16.20;99.90;;;;;;5048681;28;20445;-75
2022/05/13 08:40:40;;;;;;;5.88;1.40;;;16.50;99.90;;;;;;5048893;28;20103;-75
2022/05/13 08:43:13;;;;;;;3.90;1.73;;;16.50;99.90;;;;;;5049159;28;20094;-75
2022/05/13 08:45:44;;;;;;;4.38;1.60;;;16.30;99.90;;;;;;5049201;28;20043;-75
2022/05/13 08:48:14;;;;;;;4.63;1.15;;;16.80;99.90;;;;;;5048592;28;20033;-74
2022/05/13 08:51:04;;;;;;;8.50;1.50;;;17.20;99.90;;;;;;5048209;28;20036;-74
2022/05/13 08:53:42;;;;;;;7.65;1.65;;;17.20;99.90;;;;;;5031528;28;20090;-75
2022/05/13 08:56:11;;;;;;;5.70;1.42;;;17.00;99.90;;;;;;5048539;28;20485;-75
2022/05/13 08:58:57;;;;;;;6.03;1.75;;;17.00;99.90;;;;;;5031564;28;20040;-75
2022/05/13 09:01:28;;;;;;;4.35;1.40;;;17.00;99.90;;;;;;5032057;28;20037;-75
2022/05/13 09:04:07;;;;;;;6.45;1.48;;;17.20;99.90;;;;;;5048471;28;20041;-75
2022/05/13 09:06:42;;;;;;;6.65;1.35;;;17.70;99.90;;;;;;5047816;28;20045;-75
2022/05/13 09:09:11;;;;;;;5.75;1.40;;;18.00;99.90;;;;;;5048580;28;20496;-74
2022/05/13 09:12:17;;;;;;;5.10;1.00;;;18.00;99.90;;;;;;5048063;28;20033;-75
2022/05/13 09:15:21;;;;;;;3.85;1.15;;;17.80;99.90;;;;;;5031429;28;20471;-74
2022/05/13 09:17:59;;;;;;;7.35;1.80;;;17.70;99.90;;;;;;4993806;28;20048;-74
2022/05/13 09:20:25;;;;;;;4.53;1.10;;;17.70;99.90;;;;;;5031301;28;20048;-74
2022/05/13 09:22:58;;;;;;;5.93;1.30;;;18.00;99.90;;;;;;5048019;28;20124;-74
2022/05/13 09:25:26;;;;;;;5.93;1.20;;;18.50;99.90;;;;;;5048686;28;20037;-75
2022/05/13 09:28:09;;;;;;;6.38;1.65;;;18.30;99.90;;;;;;5047947;28;20036;-75
2022/05/13 09:30:38;;;;;;;4.45;1.30;;;18.20;99.90;;;;;;5031292;28;20056;-75
2022/05/13 09:33:24;;;;;;;3.38;0.98;;;17.90;99.90;;;;;;5048425;28;20393;-76
2022/05/13 09:36:06;;;;;;;3.70;0.80;;;18.00;99.90;;;;;;5052176;28;20092;-75
2022/05/13 09:38:45;;;;;;;3.55;0.93;;;17.80;99.90;;;;;;5048675;28;20067;-75
2022/05/13 09:41:12;;;;;;;4.07;0.90;;;17.40;99.90;;;;;;5046078;28;20052;-75
2022/05/13 09:43:50;;;;;;;3.90;1.08;;;17.10;99.90;;;;;;5031116;28;20063;-75
2022/05/13 09:46:33;;;;;;;3.92;0.88;;;17.00;99.90;;;;;;5048327;28;20041;-75
2022/05/13 09:49:24;;;;;;;3.28;1.00;;;17.40;99.90;;;;;;5047819;28;20036;-75
2022/05/13 09:52:08;;;;;;;4.03;0.95;;;17.60;99.90;;;;;;5047449;28;20041;-75
2022/05/13 09:54:36;;;;;;;4.30;0.95;;;17.50;99.90;;;;;;5045692;28;20045;-75
2022/05/13 09:57:14;;;;;;;3.92;0.90;;;17.40;99.90;;;;;;5047520;28;20041;-75
2022/05/13 09:59:41;;;;;;;6.82;1.52;;;17.30;99.90;;;;;;5047101;28;20045;-74
2022/05/13 10:02:19;;;;;;;6.68;1.40;;;17.00;99.90;;;;;;5030985;28;20055;-74
2022/05/13 10:04:51;;;;;;;3.35;1.23;;;17.00;99.90;;;;;;5056086;28;20040;-74
2022/05/13 10:07:17;;;;;;;4.85;1.20;;;17.10;99.90;;;;;;5051718;28;20065;-74
2022/05/13 10:15:20;;;;;;;4.35;1.30;;;17.30;99.90;;;;;;5050547;28;20072;-74
2022/05/13 10:18:12;;;;;;;5.72;1.38;;;17.50;99.90;;;;;;5050275;28;20080;-73
2022/05/13 10:20:43;;;;;;;2.83;1.25;;;17.60;99.90;;;;;;5050969;28;20404;-73
2022/05/13 10:23:54;;;;;;;4.53;1.42;;;18.30;99.90;;;;;;5050398;28;20048;-74
2022/05/13 10:26:25;;;;;;;5.68;1.38;;;18.80;99.90;;;;;;5005739;28;20049;-74
2022/05/13 10:28:56;;;;;;;4.45;1.30;;;19.00;99.90;;;;;;5050498;28;20045;-74
2022/05/13 10:31:27;;;;;;;5.55;1.30;;;19.10;99.90;;;;;;5050418;28;20098;-75
2022/05/13 10:34:25;;;;;;;5.78;1.20;;;18.90;99.90;;;;;;5050255;28;20489;-74
2022/05/13 10:37:13;;;;;;;6.00;1.40;;;18.90;99.90;;;;;;5012476;28;20053;-75
2022/05/13 10:39:46;;;;;;;5.28;1.35;;;19.40;99.90;;;;;;5033524;28;20044;-75
2022/05/13 10:42:22;;;;;;;4.68;1.30;;;20.00;99.90;;;;;;5050314;28;20059;-74
2022/05/13 10:45:05;;;;;;;9.07;1.45;;;20.40;99.90;;;;;;5050935;28;20068;-74
2022/05/13 10:47:43;;;;;;;5.60;1.17;;;20.50;99.90;;;;;;5050303;28;20045;-76
2022/05/13 10:50:16;;;;;;;5.18;1.10;;;20.70;99.90;;;;;;5050228;28;20098;-74
2022/05/13 10:52:50;;;;;;;7.15;1.13;;;20.50;99.90;;;;;;5049125;28;20799;-73
2022/05/13 10:55:29;;;;;;;6.68;1.58;;;19.80;99.90;;;;;;5048079;28;20485;-75
2022/05/13 10:58:03;;;;;;;5.03;1.30;;;19.50;99.90;;;;;;5046746;28;20040;-75
2022/05/13 11:00:31;;;;;;;4.63;1.02;;;19.20;99.90;;;;;;5047409;28;20037;-73
2022/05/13 11:03:14;;;;;;;3.92;1.00;;;18.90;99.90;;;;;;5046608;28;20102;-75
2022/05/13 11:06:00;;;;;;;4.70;1.02;;;18.80;99.90;;;;;;5048595;28;20039;-74
2022/05/13 11:08:41;;;;;;;3.63;1.10;;;18.80;99.90;;;;;;5049057;28;20041;-73
2022/05/13 11:11:19;;;;;;;5.32;1.23;;;18.70;99.90;;;;;;5048760;28;20048;-73
2022/05/13 11:14:10;;;;;;;5.05;1.10;;;18.60;99.90;;;;;;5047175;28;20397;-73
2022/05/13 11:17:01;;;;;;;3.33;1.20;;;18.40;99.90;;;;;;4992842;28;20064;-74
2022/05/13 11:19:30;;;;;;;6.93;1.60;;;18.30;99.90;;;;;;5048597;28;20358;-75
2022/05/13 11:22:23;;;;;;;3.78;0.90;;;18.10;99.90;;;;;;5047831;28;20052;-75
2022/05/13 11:28:11;;;;;;;4.05;1.00;;;17.60;99.90;;;;;;5048547;28;20489;-74
2022/05/13 11:30:46;;;;;;;5.93;1.02;;;17.50;99.90;;;;;;5048881;28;20491;-75
2022/05/13 11:33:20;;;;;;;3.53;0.80;;;17.60;99.90;;;;;;5048320;28;20041;-73
2022/05/13 11:36:11;;;;;;;2.90;1.02;;;17.60;99.90;;;;;;5078240;28;20041;-74
2022/05/13 11:38:36;;;;;;;3.45;1.02;;;17.70;99.90;;;;;;5031523;28;20098;-74
2022/05/13 11:41:08;;;;;;;3.10;0.95;;;17.90;99.90;;;;;;5046675;28;20497;-74
2022/05/13 11:43:55;;;;;;;3.88;1.38;;;18.00;99.90;;;;;;5048464;28;20045;-74
2022/05/13 11:46:25;;;;;;;4.93;1.25;;;18.20;99.90;;;;;;5047937;28;20146;-75
2022/05/13 11:49:29;;;;;;;4.13;1.20;;;18.50;99.90;;;;;;5048139;28;20087;-75
2022/05/13 11:51:57;;;;;;;5.85;1.20;;;18.80;99.90;;;;;;4950844;28;20456;-74
2022/05/13 11:54:28;;;;;;;4.13;1.20;;;19.10;99.90;;;;;;5030429;28;20077;-75
2022/05/13 11:57:43;;;;;;;3.50;0.90;;;19.20;99.90;;;;;;5079928;28;20119;-75
2022/05/13 12:00:35;;;;;;;4.95;1.08;;;19.10;99.90;;;;;;4953065;28;20042;-74
2022/05/13 12:03:11;;;;;;;3.28;0.80;;;19.10;99.90;;;;;;5080375;28;20120;-76
2022/05/13 12:05:54;;;;;;;2.75;0.80;;;19.20;99.90;;;;;;5032735;28;20388;-75
2022/05/13 12:08:37;;;;;;;4.75;0.90;;;19.20;99.90;;;;;;5049066;28;20512;-76
2022/05/13 12:11:03;;;;;;;4.13;0.82;;;19.20;99.90;;;;;;5048079;28;20036;-75
2022/05/13 12:13:28;;;;;;;5.70;0.90;;;19.20;99.90;;;;;;5048900;28;20442;-75
2022/05/13 12:16:05;;;;;;;4.80;0.77;;;19.00;99.90;;;;;;5048839;28;20105;-74
2022/05/13 12:18:42;;;;;;;2.55;0.80;;;18.80;99.90;;;;;;5048892;28;20477;-74
2022/05/13 12:21:21;;;;;;;5.03;0.70;;;18.60;99.90;;;;;;5046989;28;20059;-75
2022/05/13 12:24:01;;;;;;;2.40;0.90;;;18.50;99.90;;;;;;5028787;28;20041;-75
2022/05/13 12:26:52;;;;;;;4.03;1.10;;;18.50;99.90;;;;;;5048390;28;20396;-74
2022/05/13 12:29:43;;;;;;;3.50;0.80;;;18.40;99.90;;;;;;5031550;28;20037;-74
2022/05/13 12:32:20;;;;;;;4.90;1.35;;;18.60;99.90;;;;;;5046440;28;20029;-75
2022/05/13 12:37:47;;;;;;;3.35;0.98;;;18.80;99.90;;;;;;5046770;28;20268;-74
2022/05/13 12:40:22;;;;;;;6.78;1.15;;;18.80;99.90;;;;;;5047587;28;20044;-74
2022/05/13 12:42:48;;;;;;;3.65;1.08;;;18.80;99.90;;;;;;5047416;28;20041;-74
2022/05/13 12:45:37;;;;;;;4.72;1.65;;;19.00;99.90;;;;;;5048368;28;20123;-74
2022/05/13 12:48:03;;;;;;;4.82;1.15;;;19.10;99.90;;;;;;5047824;28;20041;-74
2022/05/13 12:50:51;;;;;;;5.95;1.38;;;19.10;99.90;;;;;;5048136;28;20086;-74
2022/05/13 12:53:48;;;;;;;4.80;1.50;;;19.10;99.90;;;;;;5044164;28;20116;-74
2022/05/13 12:56:28;;;;;;;2.75;1.02;;;19.10;99.90;;;;;;5047595;28;20072;-73
2022/05/13 12:59:24;;;;;;;5.07;1.80;;;19.20;99.90;;;;;;5046299;28;20041;-75
2022/05/13 13:01:53;;;;;;;7.10;1.60;;;19.10;99.90;;;;;;5047233;28;20374;-75
2022/05/13 13:04:23;;;;;;;6.13;1.58;;;18.90;99.90;;;;;;5047961;28;20045;-75
2022/05/13 13:06:50;;;;;;;6.60;1.35;;;18.90;99.90;;;;;;5046659;28;20039;-75
2022/05/13 13:09:32;;;;;;;6.20;1.20;;;18.90;99.90;;;;;;5046765;28;20037;-74
2022/05/13 13:12:05;;;;;;;6.68;1.17;;;18.80;99.90;;;;;;5046140;28;20051;-75
2022/05/13 13:15:06;;;;;;;7.20;1.40;;;19.00;99.90;;;;;;5049634;28;20095;-75
2022/05/13 13:18:01;;;;;;;7.05;1.63;;;19.30;99.90;;;;;;5050711;28;20044;-75
2022/05/13 13:20:29;;;;;;;5.30;1.60;;;19.50;99.90;;;;;;5051982;28;20052;-75
2022/05/13 13:23:00;;;;;;;4.28;1.38;;;19.40;99.90;;;;;;5033589;28;20044;-74
2022/05/13 13:25:30;;;;;;;3.28;0.88;;;19.40;99.90;;;;;;5035130;28;20389;-76
2022/05/13 13:28:00;;;;;;;6.72;1.17;;;19.70;99.90;;;;;;5050121;28;20041;-76
2022/05/13 13:30:27;;;;;;;6.35;1.08;;;19.70;99.90;;;;;;5034220;28;20083;-75
2022/05/13 13:32:54;;;;;;;6.78;1.25;;;19.60;99.90;;;;;;5045733;28;20045;-75